Time;durP1;ratioP1;P1;durP2;ratioP2;P2;SDS_P1;SDS_P2;PMS_P1;PMS_P2;Temp;Humidity;BMP_temperature;BMP_pressure;BME280_temperature;BME280_humidity;BME280_pressure;Samples;Min_cycle;Max_cycle;Signal;HPM_P1;HPM_P2
2021/03/24 00:02:19;;;;;;;10.27;7.67;;;;;;;7.47;59.36;100975.64;113645;1201;103194;-81
2021/03/24 00:05:00;;;;;;;13.23;8.07;;;;;;;7.42;59.38;100972.99;113759;1202;103338;-84
2021/03/24 00:07:30;;;;;;;15.83;8.30;;;;;;;7.38;59.40;100978.33;113900;1200;103523;-82
2021/03/24 00:09:57;;;;;;;10.70;9.18;;;;;;;7.34;59.53;100974.80;113711;1201;103634;-82
2021/03/24 00:12:23;;;;;;;20.10;8.80;;;;;;;7.32;59.68;100977.45;113889;1203;103175;-83
2021/03/24 00:14:50;;;;;;;16.70;8.50;;;;;;;7.33;59.45;100967.73;113954;1201;103713;-81
2021/03/24 00:17:17;;;;;;;10.90;8.73;;;;;;;7.36;59.67;100973.03;113969;1203;103334;-82
2021/03/24 00:19:44;;;;;;;11.58;7.83;;;;;;;7.30;59.67;100967.75;114169;1203;103226;-83
2021/03/24 00:22:10;;;;;;;9.33;8.07;;;;;;;7.22;59.94;100964.25;114159;1202;103187;-84
2021/03/24 00:24:37;;;;;;;13.85;8.85;;;;;;;7.14;59.98;100970.44;114037;1202;103197;-83
2021/03/24 00:27:19;;;;;;;11.95;8.45;;;;;;;7.04;60.19;100974.02;113663;1204;103526;-83
2021/03/24 00:29:45;;;;;;;15.13;6.70;;;;;;;7.02;60.34;100973.13;113795;1202;103242;-85
2021/03/24 00:32:13;;;;;;;10.10;7.75;;;;;;;7.01;60.50;100976.66;113799;1203;103369;-81
2021/03/24 00:34:40;;;;;;;12.80;8.07;;;;;;;7.01;60.32;100980.20;113859;1203;103328;-82
2021/03/24 00:37:06;;;;;;;13.77;8.87;;;;;;;6.98;60.46;100980.22;113798;1203;103427;-81
2021/03/24 00:39:33;;;;;;;17.10;9.55;;;;;;;6.91;60.79;100978.45;113927;1200;103271;-84
2021/03/24 00:42:00;;;;;;;11.48;7.58;;;;;;;6.88;60.84;100974.91;114072;1199;103451;-85
2021/03/24 00:44:27;;;;;;;9.45;6.90;;;;;;;6.83;60.79;100982.88;113721;1199;103467;-82
2021/03/24 00:46:56;;;;;;;8.45;7.45;;;;;;;6.80;60.96;100985.55;113611;1200;103185;-81
2021/03/24 00:49:25;;;;;;;10.90;6.73;;;;;;;6.83;61.16;100977.59;113608;1199;103395;-83
2021/03/24 00:51:51;;;;;;;14.30;8.13;;;;;;;6.91;60.88;100983.74;113719;1200;103309;-82
2021/03/24 00:54:20;;;;;;;11.05;7.43;;;;;;;6.95;60.68;100979.33;113700;1199;103296;-82
2021/03/24 00:57:01;;;;;;;15.97;8.93;;;;;;;6.91;60.71;100974.94;113531;1200;103312;-82
2021/03/24 00:59:43;;;;;;;11.60;7.60;;;;;;;6.90;60.66;100975.81;113574;1200;103284;-85
2021/03/24 01:02:09;;;;;;;9.00;8.10;;;;;;;6.84;60.65;100977.58;113390;1203;103163;-82
2021/03/24 01:04:36;;;;;;;14.33;7.37;;;;;;;6.83;60.96;100981.10;114012;1196;103142;-82
2021/03/24 01:07:06;;;;;;;13.20;8.75;;;;;;;6.85;60.94;100983.74;114184;1196;103149;-82
2021/03/24 01:09:32;;;;;;;8.20;7.30;;;;;;;6.86;60.86;100982.87;114450;1195;103183;-83
2021/03/24 01:11:59;;;;;;;11.88;8.05;;;;;;;6.89;60.91;100989.92;114544;1196;103091;-82
2021/03/24 01:14:26;;;;;;;10.83;8.13;;;;;;;6.87;60.50;100989.93;114404;1196;103667;-90
2021/03/24 01:16:52;;;;;;;12.70;7.98;;;;;;;6.82;60.84;100989.05;114439;1196;103210;-82
2021/03/24 01:19:34;;;;;;;11.70;7.90;;;;;;;6.76;61.02;100984.66;114164;1200;103568;-81
2021/03/24 01:22:01;;;;;;;9.60;7.78;;;;;;;6.71;61.04;100989.06;114066;1199;103191;-82
2021/03/24 01:24:42;;;;;;;10.20;8.30;;;;;;;6.77;61.20;100993.47;114217;1200;103328;-82
2021/03/24 01:27:09;;;;;;;10.83;7.63;;;;;;;6.75;60.95;100985.53;114204;1202;103554;-80
2021/03/24 01:29:35;;;;;;;10.85;7.05;;;;;;;6.71;60.67;100982.91;114203;1203;103273;-80
2021/03/24 01:32:02;;;;;;;10.50;8.40;;;;;;;6.67;60.84;100989.96;114350;1198;103325;-82
2021/03/24 01:34:29;;;;;;;10.60;7.15;;;;;;;6.63;61.08;100988.20;114405;1199;103847;-81
2021/03/24 01:36:56;;;;;;;8.63;7.20;;;;;;;6.52;61.17;100981.14;114379;1198;103198;-83
2021/03/24 01:39:22;;;;;;;13.33;7.63;;;;;;;6.50;61.21;100984.66;114388;1199;103239;-85
2021/03/24 01:41:49;;;;;;;10.50;7.27;;;;;;;6.53;61.29;100982.00;114349;1199;103277;-80
2021/03/24 01:44:16;;;;;;;9.45;7.25;;;;;;;6.51;61.25;100987.30;114551;1199;103262;-80
2021/03/24 01:46:45;;;;;;;10.47;7.30;;;;;;;6.47;61.20;100984.67;114106;1199;103370;-81
2021/03/24 01:49:45;;;;;;;9.37;7.07;;;;;;;6.40;61.73;100975.86;114273;1198;103145;-81
2021/03/24 01:52:12;;;;;;;11.33;7.90;;;;;;;6.35;61.70;100974.97;114062;1200;103253;-81
2021/03/24 01:54:42;;;;;;;10.23;7.07;;;;;;;6.29;61.81;100978.50;114022;1198;103191;-80
2021/03/24 01:57:14;;;;;;;9.20;7.85;;;;;;;6.25;61.98;100984.67;114157;1199;103347;-80
2021/03/24 01:59:41;;;;;;;9.28;7.90;;;;;;;6.16;62.27;100982.02;114366;1198;103974;-81
2021/03/24 02:02:20;;;;;;;9.43;7.70;;;;;;;6.13;62.53;100979.34;114499;1195;103549;-82
2021/03/24 02:04:49;;;;;;;11.98;7.90;;;;;;;6.11;62.81;100981.13;114437;1196;103054;-82
2021/03/24 02:07:34;;;;;;;11.37;8.60;;;;;;;6.06;62.82;100985.52;114539;1195;103145;-84
2021/03/24 02:10:09;;;;;;;10.63;7.95;;;;;;;6.01;62.84;100988.14;114509;1196;103200;-85
2021/03/24 02:12:39;;;;;;;15.68;9.30;;;;;;;6.05;62.67;100982.00;114355;1196;103130;-82
2021/03/24 02:15:31;;;;;;;10.80;8.15;;;;;;;6.08;62.63;100983.74;114518;1196;103203;-80
2021/03/24 02:17:59;;;;;;;13.53;9.40;;;;;;;6.12;62.51;100982.89;114435;1196;103395;-83
2021/03/24 02:21:05;;;;;;;11.30;8.75;;;;;;;6.12;62.79;100989.05;114520;1195;103143;-82
2021/03/24 02:23:40;;;;;;;8.45;6.95;;;;;;;6.09;62.61;100989.06;114667;1196;103229;-88
2021/03/24 02:26:12;;;;;;;10.43;7.68;;;;;;;6.10;62.94;100988.16;114576;1196;103184;-82
2021/03/24 02:28:40;;;;;;;14.03;7.80;;;;;;;6.08;62.79;100995.22;114696;1196;103171;-82
2021/03/24 02:31:08;;;;;;;10.30;8.28;;;;;;;6.07;62.77;100992.58;114605;1196;103012;-81
2021/03/24 02:33:39;;;;;;;16.65;7.85;;;;;;;6.05;62.86;100995.23;114442;1196;103153;-82
2021/03/24 02:36:10;;;;;;;12.30;8.48;;;;;;;6.02;63.06;100998.74;114516;1196;103203;-85
2021/03/24 02:38:55;;;;;;;12.00;7.47;;;;;;;5.93;63.53;100990.76;114303;1195;103838;-81
2021/03/24 02:41:24;;;;;;;17.28;9.70;;;;;;;5.94;63.27;100997.78;114616;1196;103139;-83
2021/03/24 02:44:06;;;;;;;12.00;9.73;;;;;;;5.91;63.54;101003.08;114348;1196;103216;-82
2021/03/24 02:46:33;;;;;;;12.40;8.50;;;;;;;5.92;64.27;101009.23;114474;1196;103187;-81
2021/03/24 02:49:05;;;;;;;12.33;9.30;;;;;;;5.95;63.54;101006.62;114656;1195;106301;-87
2021/03/24 02:51:33;;;;;;;10.27;7.70;;;;;;;5.96;63.47;101008.39;114535;1196;103154;-82
2021/03/24 02:54:12;;;;;;;10.00;7.40;;;;;;;5.94;63.95;101012.78;114527;1196;103158;-85
2021/03/24 02:56:39;;;;;;;11.13;7.80;;;;;;;5.93;63.87;101014.55;114553;1196;103130;-82
2021/03/24 02:59:09;;;;;;;11.03;7.20;;;;;;;5.97;64.13;101016.32;114365;1196;103104;-81
2021/03/24 03:01:43;;;;;;;9.50;7.10;;;;;;;5.93;63.67;101008.36;114598;1196;103076;-83
2021/03/24 03:04:18;;;;;;;11.53;8.60;;;;;;;5.89;63.96;101010.14;114583;1196;103217;-87
2021/03/24 03:06:45;;;;;;;10.58;8.05;;;;;;;5.89;63.84;101015.42;114473;1196;103216;-82
2021/03/24 03:09:41;;;;;;;11.68;7.58;;;;;;;5.85;64.42;101017.17;114341;1196;103168;-82
2021/03/24 03:12:20;;;;;;;11.33;7.63;;;;;;;5.83;64.39;101018.04;114522;1196;103203;-84
2021/03/24 03:15:00;;;;;;;10.53;7.90;;;;;;;5.83;64.26;101016.27;114363;1196;103300;-82
2021/03/24 03:17:30;;;;;;;14.73;8.83;;;;;;;5.86;64.33;101018.03;114619;1196;103485;-82
2021/03/24 03:20:17;;;;;;;12.87;8.83;;;;;;;5.85;64.61;101027.73;114661;1196;103586;-81
2021/03/24 03:23:03;;;;;;;13.47;11.37;;;;;;;5.84;64.65;101025.97;114257;1200;103316;-82
2021/03/24 03:25:36;;;;;;;14.68;10.45;;;;;;;5.96;64.99;101021.61;114181;1200;103619;-83
2021/03/24 03:28:07;;;;;;;12.70;10.20;;;;;;;5.91;64.31;101021.58;114212;1199;103226;-84
2021/03/24 03:30:50;;;;;;;15.33;10.95;;;;;;;5.92;64.58;101025.09;114210;1200;103223;-84
2021/03/24 03:33:34;;;;;;;18.90;11.10;;;;;;;5.95;64.48;101019.84;114197;1199;103197;-82
2021/03/24 03:36:01;;;;;;;19.40;12.30;;;;;;;5.96;64.60;101024.25;114271;1199;103222;-87
2021/03/24 03:38:29;;;;;;;17.33;11.73;;;;;;;5.98;64.61;101020.73;114322;1198;103296;-81
2021/03/24 03:40:58;;;;;;;21.35;13.88;;;;;;;5.99;64.25;101019.00;114242;1199;103450;-82
2021/03/24 03:43:25;;;;;;;18.33;10.40;;;;;;;5.93;64.46;101025.13;114385;1199;103309;-82
2021/03/24 03:45:55;;;;;;;14.28;11.68;;;;;;;5.94;64.65;101026.00;114128;1200;103107;-81
2021/03/24 03:48:24;;;;;;;11.33;8.37;;;;;;;5.94;64.67;101024.22;114348;1199;103111;-82
2021/03/24 03:51:02;;;;;;;9.03;7.67;;;;;;;5.96;64.60;101016.33;114283;1199;103248;-85
2021/03/24 03:53:38;;;;;;;11.67;8.47;;;;;;;5.98;64.83;101020.73;114334;1199;102999;-81
2021/03/24 03:56:17;;;;;;;10.63;7.37;;;;;;;5.99;64.66;101024.28;114384;1199;103267;-82
2021/03/24 03:58:48;;;;;;;11.85;8.40;;;;;;;5.99;64.73;101019.87;114207;1200;103139;-81
2021/03/24 04:01:28;;;;;;;10.17;8.37;;;;;;;5.93;64.87;101027.77;114488;1196;103054;-83
2021/03/24 04:04:01;;;;;;;14.53;10.40;;;;;;;5.94;64.81;101026.00;114579;1196;103264;-82
2021/03/24 04:06:45;;;;;;;13.57;9.30;;;;;;;6.00;64.96;101028.70;114545;1196;103552;-81
2021/03/24 04:09:12;;;;;;;12.63;8.17;;;;;;;5.99;64.89;101021.64;114613;1196;103150;-82
2021/03/24 04:11:48;;;;;;;19.58;10.43;;;;;;;6.02;64.92;101027.83;114489;1196;103092;-82
2021/03/24 04:14:18;;;;;;;24.40;8.95;;;;;;;6.02;64.83;101029.57;114593;1196;103254;-82
2021/03/24 04:16:46;;;;;;;15.88;9.00;;;;;;;5.92;65.23;101027.73;114572;1196;103107;-81
2021/03/24 04:19:15;;;;;;;13.83;9.20;;;;;;;5.88;65.38;101032.16;114521;1195;105221;-84
2021/03/24 04:21:45;;;;;;;12.68;10.25;;;;;;;5.93;65.00;101026.87;114619;1195;103144;-82
2021/03/24 04:24:18;;;;;;;12.10;8.53;;;;;;;5.89;64.97;101031.28;114632;1195;103191;-81
2021/03/24 04:26:47;;;;;;;11.23;8.47;;;;;;;5.92;65.09;101030.38;114563;1196;103818;-82
2021/03/24 04:29:34;;;;;;;14.27;10.03;;;;;;;5.89;64.99;101027.73;114514;1196;103748;-82
2021/03/24 04:32:03;;;;;;;12.03;7.43;;;;;;;5.88;65.08;101031.25;114598;1196;103194;-88
2021/03/24 04:34:31;;;;;;;12.43;8.87;;;;;;;5.88;65.27;101039.19;114731;1196;104752;-81
2021/03/24 04:37:17;;;;;;;12.08;9.30;;;;;;;5.86;65.25;101036.54;114634;1196;103050;-81
2021/03/24 04:40:03;;;;;;;11.65;8.60;;;;;;;5.90;65.53;101032.16;114546;1196;103073;-82
2021/03/24 04:42:44;;;;;;;12.77;10.10;;;;;;;5.92;65.23;101043.59;114491;1196;103168;-81
2021/03/24 04:45:38;;;;;;;13.90;8.20;;;;;;;5.89;65.25;101040.95;114553;1196;103140;-85
2021/03/24 04:48:35;;;;;;;17.28;11.15;;;;;;;5.97;65.08;101034.83;114537;1196;103175;-81
2021/03/24 04:51:09;;;;;;;15.70;10.23;;;;;;;6.03;64.72;101036.63;114541;1196;103369;-82
2021/03/24 04:53:42;;;;;;;13.63;10.40;;;;;;;6.05;65.29;101029.60;114482;1196;103098;-82
2021/03/24 04:56:15;;;;;;;18.30;11.63;;;;;;;6.05;65.04;101042.83;114488;1196;103296;-81
2021/03/24 04:58:57;;;;;;;18.37;10.00;;;;;;;6.08;64.93;101041.92;114507;1196;103149;-82
2021/03/24 05:01:40;;;;;;;10.68;9.43;;;;;;;6.13;64.88;101043.72;114269;1196;103201;-81
2021/03/24 05:04:35;;;;;;;13.00;9.83;;;;;;;6.18;64.23;101047.26;114299;1196;103741;-84
2021/03/24 05:07:40;;;;;;;15.48;10.38;;;;;;;6.20;64.65;101055.19;114423;1196;103549;-85
2021/03/24 05:10:12;;;;;;;15.20;10.30;;;;;;;6.18;64.34;101068.42;114450;1196;103181;-82
2021/03/24 05:12:42;;;;;;;14.85;9.43;;;;;;;6.17;64.61;101068.39;114632;1196;103123;-82
2021/03/24 05:15:18;;;;;;;16.25;10.50;;;;;;;6.19;64.66;101069.29;114381;1196;103316;-82
2021/03/24 05:17:45;;;;;;;15.83;10.07;;;;;;;6.17;64.75;101081.61;114516;1196;103251;-80
2021/03/24 05:20:28;;;;;;;14.60;10.50;;;;;;;6.15;64.79;101081.61;114400;1196;103342;-82
2021/03/24 05:22:55;;;;;;;15.38;10.35;;;;;;;6.08;64.87;101073.65;114338;1195;103150;-81
2021/03/24 05:25:40;;;;;;;15.20;11.00;;;;;;;6.02;64.78;101077.16;114251;1196;103123;-84
2021/03/24 05:28:19;;;;;;;16.78;12.33;;;;;;;6.04;65.04;101072.78;114252;1196;103399;-82
2021/03/24 05:31:09;;;;;;;16.03;11.20;;;;;;;6.05;65.08;101078.94;114172;1196;103188;-82
2021/03/24 05:33:42;;;;;;;12.03;10.18;;;;;;;6.06;65.09;101075.42;114250;1196;103152;-81
2021/03/24 05:36:16;;;;;;;21.35;12.25;;;;;;;6.12;65.05;101078.10;114494;1196;103210;-82
2021/03/24 05:38:49;;;;;;;13.70;11.10;;;;;;;6.16;65.10;101077.23;114429;1195;103232;-82
2021/03/24 05:41:27;;;;;;;21.30;11.57;;;;;;;6.24;64.89;101078.13;114443;1196;103123;-81
2021/03/24 05:44:25;;;;;;;18.45;10.90;;;;;;;6.31;64.52;101081.66;114406;1195;103083;-82
2021/03/24 05:47:07;;;;;;;17.80;11.20;;;;;;;6.35;64.46;101081.66;114387;1196;103094;-83
2021/03/24 05:49:50;;;;;;;15.55;10.70;;;;;;;6.34;64.28;101079.02;114424;1196;103123;-82
2021/03/24 05:52:29;;;;;;;15.98;11.65;;;;;;;6.34;64.09;101071.08;114375;1196;103261;-81
2021/03/24 05:55:34;;;;;;;16.23;11.03;;;;;;;6.43;63.98;101081.68;114536;1196;103252;-82
2021/03/24 05:58:20;;;;;;;13.93;11.13;;;;;;;6.37;64.44;101079.02;114629;1196;103537;-84
2021/03/24 06:01:14;;;;;;;13.45;10.18;;;;;;;6.41;64.32;101080.81;114447;1196;103217;-82
2021/03/24 06:03:50;;;;;;;17.23;11.13;;;;;;;6.43;64.17;101086.10;114527;1196;103137;-88
2021/03/24 06:06:53;;;;;;;23.37;15.27;;;;;;;6.45;64.25;101082.58;114304;1196;103098;-82
2021/03/24 06:09:39;;;;;;;17.53;12.20;;;;;;;6.53;64.03;101080.82;114357;1196;103172;-82
2021/03/24 06:12:27;;;;;;;17.90;11.33;;;;;;;6.52;64.11;101081.70;114546;1196;103233;-81
2021/03/24 06:15:06;;;;;;;17.08;10.95;;;;;;;6.52;63.80;101076.41;114609;1196;102880;-83
2021/03/24 06:18:10;;;;;;;17.25;12.90;;;;;;;6.57;63.60;101081.72;114321;1195;103360;-83
2021/03/24 06:20:53;;;;;;;17.33;13.63;;;;;;;6.59;63.67;101079.94;114635;1195;103533;-82
2021/03/24 06:23:54;;;;;;;20.50;13.30;;;;;;;6.67;64.19;101083.47;114473;1196;103187;-82
2021/03/24 06:27:18;;;;;;;16.08;12.03;;;;;;;6.74;63.21;101081.70;114640;1196;103241;-89
2021/03/24 06:29:57;;;;;;;19.45;13.75;;;;;;;6.75;63.65;101082.61;114559;1196;103152;-81
2021/03/24 06:32:40;;;;;;;16.33;13.60;;;;;;;6.79;63.51;101079.08;114852;1196;103097;-88
2021/03/24 06:35:45;;;;;;;20.35;14.45;;;;;;;6.81;63.26;101080.84;114671;1196;103133;-84
2021/03/24 06:38:41;;;;;;;17.40;14.80;;;;;;;6.84;63.32;101091.42;114619;1196;103233;-84
2021/03/24 06:41:11;;;;;;;26.37;15.37;;;;;;;6.97;62.92;101092.32;114710;1196;104017;-85
2021/03/24 06:44:00;;;;;;;19.08;13.40;;;;;;;6.99;62.83;101092.31;114747;1196;103174;-83
2021/03/24 06:47:06;;;;;;;16.70;13.63;;;;;;;7.08;62.42;101102.00;114775;1195;103335;-84
2021/03/24 06:49:56;;;;;;;22.63;17.10;;;;;;;7.07;62.25;101106.43;114596;1196;103137;-82
2021/03/24 06:52:49;;;;;;;26.30;19.00;;;;;;;7.12;62.40;101109.09;114514;1196;103159;-82
2021/03/24 06:55:53;;;;;;;28.28;17.90;;;;;;;7.15;61.91;101115.25;114747;1196;103297;-82
2021/03/24 06:58:58;;;;;;;24.37;17.57;;;;;;;7.21;61.90;101111.73;114516;1196;103188;-83
2021/03/24 07:01:41;;;;;;;28.27;20.17;;;;;;;7.25;61.98;101118.80;114446;1196;103043;-84
2021/03/24 07:04:43;;;;;;;31.78;20.15;;;;;;;7.34;61.65;101124.08;114654;1196;103258;-82
2021/03/24 07:07:17;;;;;;;30.07;18.60;;;;;;;7.43;61.47;101133.77;114631;1195;103229;-85
2021/03/24 07:10:19;;;;;;;25.53;20.30;;;;;;;7.47;61.43;101132.00;114584;1196;103985;-84
2021/03/24 07:13:24;;;;;;;25.03;19.07;;;;;;;7.39;61.06;101129.36;114451;1196;103126;-87
2021/03/24 07:16:17;;;;;;;21.28;16.05;;;;;;;7.43;60.99;101130.25;114833;1196;103961;-83
2021/03/24 07:19:13;;;;;;;25.77;14.20;;;;;;;7.48;61.16;101132.00;115038;1196;103657;-84
2021/03/24 07:22:03;;;;;;;20.45;13.90;;;;;;;7.55;60.92;101146.13;114736;1196;103159;-83
2021/03/24 07:24:47;;;;;;;24.98;15.63;;;;;;;7.58;60.77;101142.59;114639;1196;103047;-83
2021/03/24 07:27:50;;;;;;;21.50;16.33;;;;;;;7.55;60.52;101138.17;114453;1196;103514;-84
2021/03/24 07:30:46;;;;;;;21.13;13.73;;;;;;;7.55;60.98;101145.25;114461;1195;103188;-83
2021/03/24 07:33:29;;;;;;;21.23;14.67;;;;;;;7.59;61.18;101145.23;114285;1196;103622;-83
2021/03/24 07:36:24;;;;;;;19.78;14.48;;;;;;;7.64;60.69;101145.23;114459;1196;103303;-83
2021/03/24 07:39:06;;;;;;;19.03;14.45;;;;;;;7.61;61.10;101151.42;114403;1195;103190;-82
2021/03/24 07:42:07;;;;;;;21.83;16.18;;;;;;;7.65;61.01;101154.92;114683;1196;103194;-83
2021/03/24 07:44:49;;;;;;;23.10;14.90;;;;;;;7.73;60.68;101160.22;114626;1196;103136;-82
2021/03/24 07:47:50;;;;;;;18.73;13.87;;;;;;;7.79;60.47;101154.91;114551;1195;103626;-83
2021/03/24 07:50:29;;;;;;;26.63;16.65;;;;;;;7.87;60.64;101166.38;114522;1195;103709;-85
2021/03/24 07:53:01;;;;;;;22.90;14.03;;;;;;;7.83;60.30;101164.63;114794;1196;103126;-84
2021/03/24 07:55:38;;;;;;;19.48;13.63;;;;;;;7.84;60.11;101156.66;114609;1195;103168;-83
2021/03/24 07:58:44;;;;;;;23.20;15.07;;;;;;;7.87;60.43;101166.38;114424;1196;103162;-82
2021/03/24 08:01:16;;;;;;;21.25;13.50;;;;;;;7.91;60.40;101165.48;114581;1196;103818;-88
2021/03/24 08:04:08;;;;;;;18.20;13.00;;;;;;;7.93;60.14;101173.42;114323;1196;103238;-82
2021/03/24 08:06:47;;;;;;;14.73;13.10;;;;;;;7.93;59.91;101163.72;114150;1196;103130;-81
2021/03/24 08:09:41;;;;;;;23.80;14.68;;;;;;;7.99;60.03;101176.07;113972;1196;103097;-83
2021/03/24 08:12:26;;;;;;;24.30;14.58;;;;;;;7.89;59.96;101174.32;113944;1195;103091;-86
2021/03/24 08:15:03;;;;;;;20.27;13.90;;;;;;;7.90;60.34;101168.14;113823;1196;103188;-81
2021/03/24 08:17:59;;;;;;;19.45;14.40;;;;;;;7.92;60.14;101169.03;113839;1196;103210;-81
2021/03/24 08:20:45;;;;;;;21.28;13.50;;;;;;;7.91;60.42;101172.56;113958;1196;103100;-80
2021/03/24 08:23:23;;;;;;;16.53;12.98;;;;;;;7.98;60.24;101174.30;113884;1195;103111;-85
2021/03/24 08:26:17;;;;;;;18.93;13.77;;;;;;;7.98;60.30;101169.89;113982;1196;103290;-85
2021/03/24 08:29:18;;;;;;;19.20;13.30;;;;;;;7.99;60.50;101176.07;114070;1196;103196;-83
2021/03/24 08:32:27;;;;;;;18.63;12.83;;;;;;;7.99;60.83;101176.07;114521;1195;103082;-82
2021/03/24 08:35:24;;;;;;;19.27;12.07;;;;;;;8.00;60.41;101180.49;114324;1194;103194;-81
2021/03/24 08:38:14;;;;;;;15.73;13.10;;;;;;;8.01;60.84;101177.83;114411;1195;103094;-82
2021/03/24 08:40:55;;;;;;;21.23;13.43;;;;;;;7.89;60.85;101175.22;114285;1196;103153;-80
2021/03/24 08:43:30;;;;;;;24.38;14.83;;;;;;;7.94;60.94;101177.84;114527;1196;103050;-82
2021/03/24 08:46:13;;;;;;;16.83;11.98;;;;;;;7.99;60.95;101176.07;114516;1195;103146;-82
2021/03/24 08:48:56;;;;;;;16.57;14.03;;;;;;;7.99;60.77;101174.28;114307;1196;103068;-82
2021/03/24 08:51:44;;;;;;;16.18;13.25;;;;;;;8.03;60.65;101173.39;114455;1195;103107;-84
2021/03/24 08:54:24;;;;;;;17.30;12.45;;;;;;;8.05;60.14;101176.06;114242;1196;103374;-81
2021/03/24 08:57:16;;;;;;;19.37;14.37;;;;;;;8.09;60.47;101168.95;114305;1196;103152;-83
2021/03/24 08:59:53;;;;;;;19.93;13.93;;;;;;;8.14;60.84;101165.41;114217;1196;103490;-86
2021/03/24 09:02:43;;;;;;;19.40;14.00;;;;;;;8.32;60.27;101160.91;114063;1199;103869;-82
2021/03/24 09:05:28;;;;;;;17.93;13.53;;;;;;;8.37;59.75;101159.99;114068;1199;103258;-81
2021/03/24 09:08:12;;;;;;;25.80;14.60;;;;;;;8.38;59.69;101158.20;113881;1200;103229;-84
2021/03/24 09:10:58;;;;;;;21.98;13.35;;;;;;;8.40;59.80;101156.45;113929;1199;103432;-83
2021/03/24 09:13:46;;;;;;;21.98;13.33;;;;;;;8.52;59.29;101153.75;114117;1199;103284;-81
2021/03/24 09:16:53;;;;;;;20.93;13.77;;;;;;;8.51;59.03;101154.63;114216;1199;103232;-82
2021/03/24 09:19:46;;;;;;;15.90;12.45;;;;;;;8.47;59.03;101163.50;113858;1199;103293;-79
2021/03/24 09:22:40;;;;;;;15.43;12.33;;;;;;;8.51;58.83;101162.59;114077;1196;104783;-80
2021/03/24 09:25:25;;;;;;;14.33;12.50;;;;;;;8.68;58.87;101156.33;114159;1196;103104;-85
2021/03/24 09:28:29;;;;;;;18.65;11.70;;;;;;;8.90;58.50;101142.89;114228;1196;103175;-85
2021/03/24 09:31:14;;;;;;;17.50;12.67;;;;;;;9.60;57.29;101148.49;114383;1195;103869;-83
2021/03/24 09:33:50;;;;;;;17.67;12.57;;;;;;;9.80;55.99;101142.95;114256;1196;103433;-81
2021/03/24 09:36:31;;;;;;;18.55;12.00;;;;;;;10.09;55.73;101142.61;114217;1196;103110;-82
2021/03/24 09:38:59;;;;;;;18.47;11.43;;;;;;;10.47;54.22;101146.56;114523;1196;103136;-84
2021/03/24 09:41:39;;;;;;;15.50;11.73;;;;;;;10.53;53.59;101149.16;114331;1196;104775;-82
2021/03/24 09:44:30;;;;;;;16.83;10.83;;;;;;;10.64;54.16;101141.01;114003;1199;103280;-82
2021/03/24 09:46:58;;;;;;;15.85;10.70;;;;;;;10.65;53.05;101142.77;114143;1200;103308;-83
2021/03/24 09:49:38;;;;;;;14.63;11.20;;;;;;;10.39;53.22;101136.94;113814;1199;103504;-81
2021/03/24 09:52:26;;;;;;;21.73;14.73;;;;;;;10.15;53.42;101142.52;113646;1199;103194;-80
2021/03/24 09:55:15;;;;;;;19.50;13.33;;;;;;;9.94;54.55;101140.99;113535;1199;103222;-84
2021/03/24 09:58:20;;;;;;;20.23;13.80;;;;;;;9.80;54.35;101133.19;113865;1199;103289;-83
2021/03/24 10:01:04;;;;;;;16.95;12.15;;;;;;;9.57;54.53;101135.20;113759;1199;103430;-81
2021/03/24 10:04:09;;;;;;;14.65;12.30;;;;;;;9.51;54.96;101137.02;113849;1198;103689;-80
2021/03/24 10:06:48;;;;;;;18.23;11.57;;;;;;;9.38;55.54;101138.04;113855;1199;103482;-80
2021/03/24 10:09:44;;;;;;;18.40;13.60;;;;;;;9.27;55.86;101137.27;113536;1199;104035;-81
2021/03/24 10:12:33;;;;;;;16.73;13.60;;;;;;;9.17;56.03;101134.70;113597;1199;103283;-81
2021/03/24 10:15:04;;;;;;;21.77;12.97;;;;;;;9.14;56.07;101132.08;113957;1199;103299;-80
2021/03/24 10:17:49;;;;;;;13.90;12.40;;;;;;;9.10;56.28;101143.59;113897;1200;103350;-81
2021/03/24 10:20:34;;;;;;;16.70;11.65;;;;;;;9.09;56.26;101131.23;114228;1199;103159;-83
2021/03/24 10:23:12;;;;;;;18.60;12.73;;;;;;;9.16;56.78;101126.75;114417;1196;103261;-82
2021/03/24 10:25:56;;;;;;;15.25;12.35;;;;;;;9.16;56.65;101121.43;114373;1196;103348;-81
2021/03/24 10:28:48;;;;;;;21.50;13.27;;;;;;;9.09;56.28;101115.28;114124;1196;103331;-80
2021/03/24 10:31:17;;;;;;;24.48;11.98;;;;;;;9.10;56.83;101122.34;114718;1196;103126;-88
2021/03/24 10:34:07;;;;;;;22.65;11.70;;;;;;;9.07;56.24;101122.38;114649;1196;103155;-82
2021/03/24 10:37:28;;;;;;;18.50;12.80;;;;;;;9.09;56.07;101122.36;114125;1196;103197;-83
2021/03/24 10:40:06;;;;;;;17.40;12.23;;;;;;;9.04;56.79;101117.97;114201;1199;103319;-81
2021/03/24 10:43:05;;;;;;;17.27;11.23;;;;;;;9.03;56.63;101121.52;114486;1196;103069;-80
2021/03/24 10:45:54;;;;;;;20.33;13.05;;;;;;;9.01;57.20;101115.34;114194;1196;104165;-81
2021/03/24 10:48:25;;;;;;;23.93;21.48;;;;;;;8.98;56.81;101111.83;114393;1196;103312;-82
2021/03/24 10:51:10;;;;;;;13.65;11.18;;;;;;;8.90;56.66;101114.54;114446;1196;103008;-81
2021/03/24 10:53:37;;;;;;;18.03;13.67;;;;;;;8.91;57.05;101113.65;114533;1196;103145;-82
2021/03/24 10:56:38;;;;;;;17.80;12.88;;;;;;;8.92;57.29;101112.77;114572;1196;103621;-83
2021/03/24 10:59:34;;;;;;;16.47;13.63;;;;;;;8.86;57.51;101119.02;114373;1196;103172;-81
2021/03/24 11:02:18;;;;;;;19.47;12.97;;;;;;;8.93;57.40;101110.98;114546;1196;103101;-82
2021/03/24 11:04:55;;;;;;;15.25;12.95;;;;;;;8.96;57.04;101113.63;114269;1196;103267;-80
2021/03/24 11:07:42;;;;;;;15.20;12.30;;;;;;;8.95;57.19;101109.20;114349;1196;103181;-81
2021/03/24 11:10:21;;;;;;;14.47;12.37;;;;;;;8.95;56.84;101111.86;114542;1195;103098;-81
2021/03/24 11:12:55;;;;;;;16.23;12.37;;;;;;;8.94;57.40;101105.64;114574;1196;103293;-82
2021/03/24 11:15:55;;;;;;;22.87;13.83;;;;;;;8.96;57.51;101103.00;114480;1196;103134;-82
2021/03/24 11:18:26;;;;;;;22.35;15.33;;;;;;;9.02;57.68;101101.17;114420;1196;103129;-81
2021/03/24 11:21:01;;;;;;;18.30;12.50;;;;;;;9.03;57.45;101096.73;114258;1196;103053;-81
2021/03/24 11:23:42;;;;;;;15.95;12.35;;;;;;;9.09;56.37;101099.34;114285;1195;103114;-81
2021/03/24 11:26:31;;;;;;;19.40;12.20;;;;;;;9.14;56.38;101092.22;114498;1196;103348;-82
2021/03/24 11:29:01;;;;;;;19.07;13.17;;;;;;;9.17;56.35;101089.52;114251;1196;104029;-84
2021/03/24 11:31:55;;;;;;;14.57;11.70;;;;;;;9.27;56.25;101094.75;114782;1196;103252;-82
2021/03/24 11:34:30;;;;;;;19.43;12.27;;;;;;;9.36;55.82;101102.63;114465;1196;103162;-86
2021/03/24 11:37:03;;;;;;;16.15;11.73;;;;;;;9.38;55.41;101098.16;114495;1196;103100;-83
2021/03/24 11:39:36;;;;;;;14.93;11.33;;;;;;;9.41;55.54;101105.23;114138;1196;103199;-82
2021/03/24 11:42:09;;;;;;;16.75;12.08;;;;;;;9.35;55.59;101095.55;114316;1196;103162;-87
2021/03/24 11:44:36;;;;;;;12.83;10.50;;;;;;;9.35;55.21;101092.89;114260;1196;103056;-82
2021/03/24 11:47:40;;;;;;;13.27;11.17;;;;;;;9.40;55.10;101099.05;114238;1196;103104;-85
2021/03/24 11:50:19;;;;;;;15.20;13.73;;;;;;;9.38;53.69;101100.82;114361;1196;103156;-83
2021/03/24 11:52:55;;;;;;;15.10;12.40;;;;;;;9.35;54.56;101093.76;114301;1196;103203;-82
2021/03/24 11:55:52;;;;;;;14.75;11.60;;;;;;;9.35;54.43;101091.09;114474;1196;103165;-83
2021/03/24 11:58:27;;;;;;;23.77;14.60;;;;;;;9.34;54.17;101093.78;114287;1196;103211;-82
2021/03/24 12:01:22;;;;;;;23.47;14.43;;;;;;;9.41;54.07;101099.91;114476;1196;103130;-83
2021/03/24 12:04:01;;;;;;;15.23;13.33;;;;;;;9.40;54.00;101093.73;114071;1196;103583;-86
2021/03/24 12:06:52;;;;;;;19.10;16.50;;;;;;;9.37;54.30;101094.64;114427;1196;103245;-82